sensor_id;sensor_type;location;lat;lon;timestamp;temperature;humidity
11944;DHT22;6031;50.220;10.122;2022-11-20T00:00:45;-1.20;99.90
11944;DHT22;6031;50.220;10.122;2022-11-20T00:03:12;-1.40;99.90
11944;DHT22;6031;50.220;10.122;2022-11-20T00:05:37;-1.30;99.90
11944;DHT22;6031;50.220;10.122;2022-11-20T00:08:03;-1.40;99.90
11944;DHT22;6031;50.220;10.122;2022-11-20T00:10:28;-1.40;99.90
11944;DHT22;6031;50.220;10.122;2022-11-20T00:12:54;-1.40;99.90
11944;DHT22;6031;50.220;10.122;2022-11-20T00:15:19;-1.40;99.90
11944;DHT22;6031;50.220;10.122;2022-11-20T00:17:45;-1.40;99.90
11944;DHT22;6031;50.220;10.122;2022-11-20T00:20:11;-1.30;99.90
11944;DHT22;6031;50.220;10.122;2022-11-20T00:22:37;-1.40;99.90
11944;DHT22;6031;50.220;10.122;2022-11-20T00:25:03;-1.40;99.90
11944;DHT22;6031;50.220;10.122;2022-11-20T00:27:28;-1.50;99.90
11944;DHT22;6031;50.220;10.122;2022-11-20T00:29:54;-1.50;99.90
11944;DHT22;6031;50.220;10.122;2022-11-20T00:32:19;-1.50;99.90
11944;DHT22;6031;50.220;10.122;2022-11-20T00:34:45;-1.50;99.90
11944;DHT22;6031;50.220;10.122;2022-11-20T00:37:10;-1.40;99.90
11944;DHT22;6031;50.220;10.122;2022-11-20T00:39:36;-1.50;99.90
11944;DHT22;6031;50.220;10.122;2022-11-20T00:42:01;-1.50;99.90
11944;DHT22;6031;50.220;10.122;2022-11-20T00:44:27;-1.50;99.90
11944;DHT22;6031;50.220;10.122;2022-11-20T00:46:52;-1.50;99.90
11944;DHT22;6031;50.220;10.122;2022-11-20T00:49:18;-1.60;99.90
11944;DHT22;6031;50.220;10.122;2022-11-20T00:51:43;-1.60;99.90
11944;DHT22;6031;50.220;10.122;2022-11-20T00:54:09;-1.60;99.90
11944;DHT22;6031;50.220;10.122;2022-11-20T00:56:35;-1.70;99.90
11944;DHT22;6031;50.220;10.122;2022-11-20T00:59:01;-1.70;99.90
11944;DHT22;6031;50.220;10.122;2022-11-20T01:01:27;-1.70;99.90
11944;DHT22;6031;50.220;10.122;2022-11-20T01:03:56;-1.70;99.90
11944;DHT22;6031;50.220;10.122;2022-11-20T01:06:30;-1.60;99.90
11944;DHT22;6031;50.220;10.122;2022-11-20T01:08:58;-1.60;99.90
11944;DHT22;6031;50.220;10.122;2022-11-20T01:11:27;-1.60;99.90
11944;DHT22;6031;50.220;10.122;2022-11-20T01:13:54;-1.60;99.90
11944;DHT22;6031;50.220;10.122;2022-11-20T01:16:34;-1.70;99.90
11944;DHT22;6031;50.220;10.122;2022-11-20T01:19:01;-1.60;99.90
11944;DHT22;6031;50.220;10.122;2022-11-20T01:21:33;-1.60;99.90
11944;DHT22;6031;50.220;10.122;2022-11-20T01:23:59;-1.50;99.90
11944;DHT22;6031;50.220;10.122;2022-11-20T01:26:30;-1.60;99.90
11944;DHT22;6031;50.220;10.122;2022-11-20T01:28:58;-1.60;99.90
11944;DHT22;6031;50.220;10.122;2022-11-20T01:31:26;-1.70;99.90
11944;DHT22;6031;50.220;10.122;2022-11-20T01:33:55;-1.70;99.90
11944;DHT22;6031;50.220;10.122;2022-11-20T01:36:23;-1.70;99.90
11944;DHT22;6031;50.220;10.122;2022-11-20T01:38:53;-1.70;99.90
11944;DHT22;6031;50.220;10.122;2022-11-20T01:41:19;-1.70;99.90
11944;DHT22;6031;50.220;10.122;2022-11-20T01:44:04;-1.60;99.90
11944;DHT22;6031;50.220;10.122;2022-11-20T01:46:36;-1.70;99.90
11944;DHT22;6031;50.220;10.122;2022-11-20T01:49:46;-1.60;99.90
11944;DHT22;6031;50.220;10.122;2022-11-20T01:52:26;-1.70;99.90
11944;DHT22;6031;50.220;10.122;2022-11-20T01:55:01;-1.70;99.90
11944;DHT22;6031;50.220;10.122;2022-11-20T01:57:29;-1.60;99.90
11944;DHT22;6031;50.220;10.122;2022-11-20T02:00:16;-1.60;99.90
11944;DHT22;6031;50.220;10.122;2022-11-20T02:02:46;-1.50;99.90
11944;DHT22;6031;50.220;10.122;2022-11-20T02:05:27;-1.40;99.90
11944;DHT22;6031;50.220;10.122;2022-11-20T02:07:56;-1.50;99.90
11944;DHT22;6031;50.220;10.122;2022-11-20T02:10:22;-1.50;99.90
11944;DHT22;6031;50.220;10.122;2022-11-20T02:12:48;-1.50;99.90
11944;DHT22;6031;50.220;10.122;2022-11-20T02:15:33;-1.50;99.90
11944;DHT22;6031;50.220;10.122;2022-11-20T02:17:59;-1.40;99.90
11944;DHT22;6031;50.220;10.122;2022-11-20T02:20:25;-1.50;99.90
11944;DHT22;6031;50.220;10.122;2022-11-20T02:22:56;-1.40;99.90
11944;DHT22;6031;50.220;10.122;2022-11-20T02:25:24;-1.30;99.90
11944;DHT22;6031;50.220;10.122;2022-11-20T02:27:50;-1.30;99.90
11944;DHT22;6031;50.220;10.122;2022-11-20T02:30:16;-1.30;99.90
11944;DHT22;6031;50.220;10.122;2022-11-20T02:32:42;-1.20;99.90
11944;DHT22;6031;50.220;10.122;2022-11-20T02:35:37;-1.30;99.90
11944;DHT22;6031;50.220;10.122;2022-11-20T02:37:58;-1.30;99.90
11944;DHT22;6031;50.220;10.122;2022-11-20T02:40:24;-1.30;99.90
11944;DHT22;6031;50.220;10.122;2022-11-20T02:42:56;-1.30;99.90
11944;DHT22;6031;50.220;10.122;2022-11-20T02:45:23;-1.40;99.90
11944;DHT22;6031;50.220;10.122;2022-11-20T02:47:49;-1.40;99.90
11944;DHT22;6031;50.220;10.122;2022-11-20T02:50:15;-1.40;99.90
11944;DHT22;6031;50.220;10.122;2022-11-20T02:52:41;-1.30;99.90
11944;DHT22;6031;50.220;10.122;2022-11-20T02:55:06;-1.30;99.90
11944;DHT22;6031;50.220;10.122;2022-11-20T02:57:32;-1.30;99.90
11944;DHT22;6031;50.220;10.122;2022-11-20T02:59:58;-1.20;99.90
11944;DHT22;6031;50.220;10.122;2022-11-20T03:02:23;-1.20;99.90
11944;DHT22;6031;50.220;10.122;2022-11-20T03:04:49;-1.20;99.90
11944;DHT22;6031;50.220;10.122;2022-11-20T03:07:14;-1.20;99.90
11944;DHT22;6031;50.220;10.122;2022-11-20T03:09:40;-1.20;99.90
11944;DHT22;6031;50.220;10.122;2022-11-20T03:12:05;-1.20;99.90
11944;DHT22;6031;50.220;10.122;2022-11-20T03:14:31;-1.30;99.90
11944;DHT22;6031;50.220;10.122;2022-11-20T03:16:57;-1.30;99.90
11944;DHT22;6031;50.220;10.122;2022-11-20T03:19:22;-1.20;99.90
11944;DHT22;6031;50.220;10.122;2022-11-20T03:21:48;-1.20;99.90
11944;DHT22;6031;50.220;10.122;2022-11-20T03:24:14;-1.20;99.90
11944;DHT22;6031;50.220;10.122;2022-11-20T03:26:40;-1.20;99.90
11944;DHT22;6031;50.220;10.122;2022-11-20T03:29:06;-1.20;99.90
11944;DHT22;6031;50.220;10.122;2022-11-20T03:31:37;-1.10;99.90
11944;DHT22;6031;50.220;10.122;2022-11-20T03:34:04;-1.10;99.90
11944;DHT22;6031;50.220;10.122;2022-11-20T03:36:30;-1.10;99.90
11944;DHT22;6031;50.220;10.122;2022-11-20T03:38:56;-1.10;99.90
11944;DHT22;6031;50.220;10.122;2022-11-20T03:41:35;-1.10;99.90
11944;DHT22;6031;50.220;10.122;2022-11-20T03:44:03;-1.20;99.90
11944;DHT22;6031;50.220;10.122;2022-11-20T03:46:29;-1.20;99.90
11944;DHT22;6031;50.220;10.122;2022-11-20T03:48:55;-1.20;99.90
11944;DHT22;6031;50.220;10.122;2022-11-20T03:51:21;-1.10;99.90
11944;DHT22;6031;50.220;10.122;2022-11-20T03:53:49;-1.10;99.90
11944;DHT22;6031;50.220;10.122;2022-11-20T03:56:17;-1.10;99.90
11944;DHT22;6031;50.220;10.122;2022-11-20T03:58:43;-1.10;99.90
11944;DHT22;6031;50.220;10.122;2022-11-20T04:01:11;-1.20;99.90
11944;DHT22;6031;50.220;10.122;2022-11-20T04:03:38;-1.20;99.90
11944;DHT22;6031;50.220;10.122;2022-11-20T04:06:10;-1.20;99.90
11944;DHT22;6031;50.220;10.122;2022-11-20T04:08:36;-1.20;99.90
11944;DHT22;6031;50.220;10.122;2022-11-20T04:11:29;-1.20;99.90
11944;DHT22;6031;50.220;10.122;2022-11-20T04:13:59;-1.10;99.90
11944;DHT22;6031;50.220;10.122;2022-11-20T04:16:26;-1.10;99.90
11944;DHT22;6031;50.220;10.122;2022-11-20T04:18:55;-1.10;99.90
11944;DHT22;6031;50.220;10.122;2022-11-20T04:21:22;-1.00;99.90
11944;DHT22;6031;50.220;10.122;2022-11-20T04:23:48;-1.10;99.90
11944;DHT22;6031;50.220;10.122;2022-11-20T04:26:14;-1.10;99.90
11944;DHT22;6031;50.220;10.122;2022-11-20T04:28:40;-1.10;99.90
11944;DHT22;6031;50.220;10.122;2022-11-20T04:31:07;-1.00;99.90
11944;DHT22;6031;50.220;10.122;2022-11-20T04:33:34;-1.10;99.90
11944;DHT22;6031;50.220;10.122;2022-11-20T04:36:22;-1.10;99.90
11944;DHT22;6031;50.220;10.122;2022-11-20T04:38:56;-1.00;99.90
11944;DHT22;6031;50.220;10.122;2022-11-20T04:41:24;-1.00;99.90
11944;DHT22;6031;50.220;10.122;2022-11-20T04:43:52;-1.00;99.90
11944;DHT22;6031;50.220;10.122;2022-11-20T04:46:19;-1.00;99.90
11944;DHT22;6031;50.220;10.122;2022-11-20T04:48:45;-1.10;99.90
11944;DHT22;6031;50.220;10.122;2022-11-20T04:51:11;-0.70;99.90
11944;DHT22;6031;50.220;10.122;2022-11-20T04:53:37;-1.00;99.90
11944;DHT22;6031;50.220;10.122;2022-11-20T04:56:05;-1.00;99.90
11944;DHT22;6031;50.220;10.122;2022-11-20T04:58:31;-1.00;99.90
11944;DHT22;6031;50.220;10.122;2022-11-20T05:01:02;-1.00;99.90
11944;DHT22;6031;50.220;10.122;2022-11-20T05:03:28;-1.10;99.90
11944;DHT22;6031;50.220;10.122;2022-11-20T05:05:53;-1.10;99.90
11944;DHT22;6031;50.220;10.122;2022-11-20T05:08:19;-1.10;99.90
11944;DHT22;6031;50.220;10.122;2022-11-20T05:10:44;-1.10;99.90
11944;DHT22;6031;50.220;10.122;2022-11-20T05:13:10;-1.20;99.90
11944;DHT22;6031;50.220;10.122;2022-11-20T05:15:35;-1.20;99.90
11944;DHT22;6031;50.220;10.122;2022-11-20T05:18:01;-1.30;99.90
11944;DHT22;6031;50.220;10.122;2022-11-20T05:20:26;-1.30;99.90
11944;DHT22;6031;50.220;10.122;2022-11-20T05:22:52;-1.20;99.90
11944;DHT22;6031;50.220;10.122;2022-11-20T05:25:17;-1.20;99.90
11944;DHT22;6031;50.220;10.122;2022-11-20T05:27:43;-1.20;99.90
11944;DHT22;6031;50.220;10.122;2022-11-20T05:30:09;-1.10;99.90
11944;DHT22;6031;50.220;10.122;2022-11-20T05:32:35;-1.00;99.90
11944;DHT22;6031;50.220;10.122;2022-11-20T05:35:00;-0.90;99.90
11944;DHT22;6031;50.220;10.122;2022-11-20T05:37:26;-0.80;99.90
11944;DHT22;6031;50.220;10.122;2022-11-20T05:39:51;-0.90;99.90
11944;DHT22;6031;50.220;10.122;2022-11-20T05:42:17;-0.90;99.90
11944;DHT22;6031;50.220;10.122;2022-11-20T05:44:59;-0.90;99.90
11944;DHT22;6031;50.220;10.122;2022-11-20T05:47:26;-0.90;99.90
11944;DHT22;6031;50.220;10.122;2022-11-20T05:49:52;-1.00;99.90
11944;DHT22;6031;50.220;10.122;2022-11-20T05:52:17;-1.00;99.90
11944;DHT22;6031;50.220;10.122;2022-11-20T05:54:43;-1.00;99.90
11944;DHT22;6031;50.220;10.122;2022-11-20T05:57:08;-1.00;99.90
11944;DHT22;6031;50.220;10.122;2022-11-20T05:59:34;-1.00;99.90
11944;DHT22;6031;50.220;10.122;2022-11-20T06:01:59;-0.90;99.90
11944;DHT22;6031;50.220;10.122;2022-11-20T06:04:25;-0.90;99.90
11944;DHT22;6031;50.220;10.122;2022-11-20T06:06:50;-0.90;99.90
11944;DHT22;6031;50.220;10.122;2022-11-20T06:09:16;-1.00;99.90
11944;DHT22;6031;50.220;10.122;2022-11-20T06:11:41;-0.90;99.90
11944;DHT22;6031;50.220;10.122;2022-11-20T06:14:07;-1.00;99.90
11944;DHT22;6031;50.220;10.122;2022-11-20T06:16:32;-1.00;99.90
11944;DHT22;6031;50.220;10.122;2022-11-20T06:18:58;-0.90;99.90
11944;DHT22;6031;50.220;10.122;2022-11-20T06:21:24;-0.90;99.90
11944;DHT22;6031;50.220;10.122;2022-11-20T06:23:51;-0.90;99.90
11944;DHT22;6031;50.220;10.122;2022-11-20T06:26:19;-0.90;99.90
11944;DHT22;6031;50.220;10.122;2022-11-20T06:28:45;-0.90;99.90
11944;DHT22;6031;50.220;10.122;2022-11-20T06:31:13;-0.90;99.90
11944;DHT22;6031;50.220;10.122;2022-11-20T06:33:40;-0.80;99.90
11944;DHT22;6031;50.220;10.122;2022-11-20T06:36:05;-0.80;99.90
11944;DHT22;6031;50.220;10.122;2022-11-20T06:38:31;-0.70;99.90
11944;DHT22;6031;50.220;10.122;2022-11-20T06:40:57;-0.70;99.90
11944;DHT22;6031;50.220;10.122;2022-11-20T06:43:23;-0.70;99.90
11944;DHT22;6031;50.220;10.122;2022-11-20T06:45:56;-0.70;99.90
11944;DHT22;6031;50.220;10.122;2022-11-20T06:48:23;-0.60;99.90
11944;DHT22;6031;50.220;10.122;2022-11-20T06:50:48;-0.70;99.90
11944;DHT22;6031;50.220;10.122;2022-11-20T06:53:14;-0.70;99.90
11944;DHT22;6031;50.220;10.122;2022-11-20T06:55:46;-0.70;99.90
11944;DHT22;6031;50.220;10.122;2022-11-20T06:58:13;-0.70;99.90
11944;DHT22;6031;50.220;10.122;2022-11-20T07:00:39;-0.60;99.90
11944;DHT22;6031;50.220;10.122;2022-11-20T07:03:07;-0.60;99.90
11944;DHT22;6031;50.220;10.122;2022-11-20T07:05:33;-0.60;99.90
11944;DHT22;6031;50.220;10.122;2022-11-20T07:07:58;-0.60;99.90
11944;DHT22;6031;50.220;10.122;2022-11-20T07:10:25;-0.60;99.90
11944;DHT22;6031;50.220;10.122;2022-11-20T07:12:52;-0.60;99.90
11944;DHT22;6031;50.220;10.122;2022-11-20T07:15:18;-0.60;99.90
11944;DHT22;6031;50.220;10.122;2022-11-20T07:17:44;-0.60;99.90
11944;DHT22;6031;50.220;10.122;2022-11-20T07:20:11;-0.70;99.90
11944;DHT22;6031;50.220;10.122;2022-11-20T07:22:37;-0.70;99.90
11944;DHT22;6031;50.220;10.122;2022-11-20T07:25:03;-0.50;99.90
11944;DHT22;6031;50.220;10.122;2022-11-20T07:27:29;-0.60;99.90
11944;DHT22;6031;50.220;10.122;2022-11-20T07:29:55;-0.50;99.90
11944;DHT22;6031;50.220;10.122;2022-11-20T07:32:21;-0.50;99.90
11944;DHT22;6031;50.220;10.122;2022-11-20T07:34:47;-0.40;99.90
11944;DHT22;6031;50.220;10.122;2022-11-20T07:37:13;-0.40;99.90
11944;DHT22;6031;50.220;10.122;2022-11-20T07:39:39;-0.40;99.90
11944;DHT22;6031;50.220;10.122;2022-11-20T07:42:06;-0.40;99.90
11944;DHT22;6031;50.220;10.122;2022-11-20T07:44:31;-0.40;99.90
11944;DHT22;6031;50.220;10.122;2022-11-20T07:46:57;-0.30;99.90
11944;DHT22;6031;50.220;10.122;2022-11-20T07:49:22;-0.30;99.90
11944;DHT22;6031;50.220;10.122;2022-11-20T07:51:50;-0.30;99.90
11944;DHT22;6031;50.220;10.122;2022-11-20T07:54:16;-0.30;99.90
11944;DHT22;6031;50.220;10.122;2022-11-20T07:56:42;-0.30;99.90
11944;DHT22;6031;50.220;10.122;2022-11-20T07:59:07;-0.40;99.90
11944;DHT22;6031;50.220;10.122;2022-11-20T08:01:33;-0.30;99.90
11944;DHT22;6031;50.220;10.122;2022-11-20T08:03:58;-0.20;99.90
11944;DHT22;6031;50.220;10.122;2022-11-20T08:06:24;-0.30;99.90
11944;DHT22;6031;50.220;10.122;2022-11-20T08:08:50;-0.20;99.90
11944;DHT22;6031;50.220;10.122;2022-11-20T08:11:16;-0.20;99.90
11944;DHT22;6031;50.220;10.122;2022-11-20T08:14:00;-0.20;99.90
11944;DHT22;6031;50.220;10.122;2022-11-20T08:16:38;-0.20;99.90
11944;DHT22;6031;50.220;10.122;2022-11-20T08:19:04;-0.10;99.90
11944;DHT22;6031;50.220;10.122;2022-11-20T08:21:30;0.00;99.90
11944;DHT22;6031;50.220;10.122;2022-11-20T08:23:57;0.00;99.90
11944;DHT22;6031;50.220;10.122;2022-11-20T08:26:23;0.00;99.90
11944;DHT22;6031;50.220;10.122;2022-11-20T08:28:52;0.00;99.90
11944;DHT22;6031;50.220;10.122;2022-11-20T08:31:18;0.20;99.90
11944;DHT22;6031;50.220;10.122;2022-11-20T08:33:43;0.10;99.90
11944;DHT22;6031;50.220;10.122;2022-11-20T08:36:09;0.10;99.90
11944;DHT22;6031;50.220;10.122;2022-11-20T08:38:34;0.10;99.90
11944;DHT22;6031;50.220;10.122;2022-11-20T08:41:01;0.00;99.90
11944;DHT22;6031;50.220;10.122;2022-11-20T08:43:46;0.10;99.90
11944;DHT22;6031;50.220;10.122;2022-11-20T08:46:12;0.00;99.90
11944;DHT22;6031;50.220;10.122;2022-11-20T08:48:37;0.00;99.90
11944;DHT22;6031;50.220;10.122;2022-11-20T08:51:03;0.00;99.90
11944;DHT22;6031;50.220;10.122;2022-11-20T08:53:28;0.00;99.90
11944;DHT22;6031;50.220;10.122;2022-11-20T08:55:54;0.00;99.90
11944;DHT22;6031;50.220;10.122;2022-11-20T08:58:20;0.00;99.90
11944;DHT22;6031;50.220;10.122;2022-11-20T09:00:45;0.00;99.90
11944;DHT22;6031;50.220;10.122;2022-11-20T09:03:11;0.00;99.90
11944;DHT22;6031;50.220;10.122;2022-11-20T09:05:38;0.00;99.90
11944;DHT22;6031;50.220;10.122;2022-11-20T09:08:04;-0.10;99.90
11944;DHT22;6031;50.220;10.122;2022-11-20T09:10:30;-0.10;99.90
11944;DHT22;6031;50.220;10.122;2022-11-20T09:12:56;-0.10;99.90
11944;DHT22;6031;50.220;10.122;2022-11-20T09:15:22;0.10;99.90
11944;DHT22;6031;50.220;10.122;2022-11-20T09:17:59;0.10;99.90
11944;DHT22;6031;50.220;10.122;2022-11-20T09:20:25;0.20;99.90
11944;DHT22;6031;50.220;10.122;2022-11-20T09:22:51;0.20;99.90
11944;DHT22;6031;50.220;10.122;2022-11-20T09:25:17;0.40;99.90
11944;DHT22;6031;50.220;10.122;2022-11-20T09:27:42;0.50;99.90
11944;DHT22;6031;50.220;10.122;2022-11-20T09:30:09;0.60;99.90
11944;DHT22;6031;50.220;10.122;2022-11-20T09:32:35;0.60;99.90
11944;DHT22;6031;50.220;10.122;2022-11-20T09:35:01;0.70;99.90
11944;DHT22;6031;50.220;10.122;2022-11-20T09:37:27;0.60;99.90
11944;DHT22;6031;50.220;10.122;2022-11-20T09:39:52;0.60;99.90
11944;DHT22;6031;50.220;10.122;2022-11-20T09:42:54;0.80;99.90
11944;DHT22;6031;50.220;10.122;2022-11-20T09:48:42;1.00;99.90
11944;DHT22;6031;50.220;10.122;2022-11-20T09:54:18;1.20;99.90
11944;DHT22;6031;50.220;10.122;2022-11-20T09:57:02;1.30;99.90
11944;DHT22;6031;50.220;10.122;2022-11-20T09:59:41;1.40;99.90
11944;DHT22;6031;50.220;10.122;2022-11-20T10:02:20;1.40;99.90
11944;DHT22;6031;50.220;10.122;2022-11-20T10:05:19;1.30;99.90
11944;DHT22;6031;50.220;10.122;2022-11-20T10:10:47;1.40;99.90
11944;DHT22;6031;50.220;10.122;2022-11-20T10:27:15;1.70;99.90
11944;DHT22;6031;50.220;10.122;2022-11-20T10:29:59;1.80;99.90
11944;DHT22;6031;50.220;10.122;2022-11-20T10:32:31;1.80;99.90
11944;DHT22;6031;50.220;10.122;2022-11-20T10:35:16;1.90;99.90
11944;DHT22;6031;50.220;10.122;2022-11-20T10:37:44;1.90;99.90
11944;DHT22;6031;50.220;10.122;2022-11-20T10:42:47;1.80;99.90
11944;DHT22;6031;50.220;10.122;2022-11-20T10:47:43;2.00;99.90
11944;DHT22;6031;50.220;10.122;2022-11-20T10:50:11;2.30;99.90
11944;DHT22;6031;50.220;10.122;2022-11-20T10:58:41;2.30;99.90
11944;DHT22;6031;50.220;10.122;2022-11-20T11:01:21;2.40;99.90
11944;DHT22;6031;50.220;10.122;2022-11-20T11:03:49;2.20;99.90
11944;DHT22;6031;50.220;10.122;2022-11-20T11:06:39;2.20;99.90
11944;DHT22;6031;50.220;10.122;2022-11-20T11:09:32;2.30;99.90
11944;DHT22;6031;50.220;10.122;2022-11-20T11:11:59;2.50;99.90
11944;DHT22;6031;50.220;10.122;2022-11-20T11:14:24;2.60;99.90
11944;DHT22;6031;50.220;10.122;2022-11-20T11:16:55;2.70;99.90
11944;DHT22;6031;50.220;10.122;2022-11-20T11:19:21;2.60;99.90
11944;DHT22;6031;50.220;10.122;2022-11-20T11:21:50;2.90;99.90
11944;DHT22;6031;50.220;10.122;2022-11-20T11:26:59;2.90;99.90
11944;DHT22;6031;50.220;10.122;2022-11-20T11:29:25;2.90;99.90
11944;DHT22;6031;50.220;10.122;2022-11-20T11:32:10;2.80;99.90
11944;DHT22;6031;50.220;10.122;2022-11-20T11:34:36;2.90;99.90
11944;DHT22;6031;50.220;10.122;2022-11-20T11:37:02;3.00;99.90
11944;DHT22;6031;50.220;10.122;2022-11-20T11:39:31;3.00;99.90
11944;DHT22;6031;50.220;10.122;2022-11-20T11:41:58;3.10;99.90
11944;DHT22;6031;50.220;10.122;2022-11-20T11:44:33;3.00;99.90
11944;DHT22;6031;50.220;10.122;2022-11-20T11:47:23;3.00;99.90
11944;DHT22;6031;50.220;10.122;2022-11-20T11:50:00;3.10;99.90
11944;DHT22;6031;50.220;10.122;2022-11-20T11:52:25;3.20;99.90
11944;DHT22;6031;50.220;10.122;2022-11-20T11:54:55;3.20;99.90
11944;DHT22;6031;50.220;10.122;2022-11-20T11:57:41;3.30;99.90
11944;DHT22;6031;50.220;10.122;2022-11-20T12:00:17;3.30;99.90
11944;DHT22;6031;50.220;10.122;2022-11-20T12:05:23;3.30;99.90
11944;DHT22;6031;50.220;10.122;2022-11-20T12:10:37;3.10;99.90
11944;DHT22;6031;50.220;10.122;2022-11-20T12:15:49;3.40;99.90
11944;DHT22;6031;50.220;10.122;2022-11-20T12:18:18;3.70;99.90
11944;DHT22;6031;50.220;10.122;2022-11-20T12:24:10;4.10;99.90
11944;DHT22;6031;50.220;10.122;2022-11-20T12:27:00;4.00;99.90
11944;DHT22;6031;50.220;10.122;2022-11-20T12:35:12;3.70;99.90
11944;DHT22;6031;50.220;10.122;2022-11-20T12:41:00;3.30;99.90
11944;DHT22;6031;50.220;10.122;2022-11-20T12:43:29;3.00;99.90
11944;DHT22;6031;50.220;10.122;2022-11-20T12:46:27;2.90;99.90
11944;DHT22;6031;50.220;10.122;2022-11-20T12:51:40;3.00;99.90
11944;DHT22;6031;50.220;10.122;2022-11-20T13:08:24;2.90;99.90
11944;DHT22;6031;50.220;10.122;2022-11-20T13:10:56;2.80;99.90
11944;DHT22;6031;50.220;10.122;2022-11-20T13:17:04;2.80;99.90
11944;DHT22;6031;50.220;10.122;2022-11-20T13:19:11;2.80;99.90
11944;DHT22;6031;50.220;10.122;2022-11-20T13:21:39;2.80;99.90
11944;DHT22;6031;50.220;10.122;2022-11-20T13:29:34;2.80;99.90
11944;DHT22;6031;50.220;10.122;2022-11-20T13:32:25;2.80;99.90
11944;DHT22;6031;50.220;10.122;2022-11-20T13:34:54;2.80;99.90
11944;DHT22;6031;50.220;10.122;2022-11-20T13:37:37;2.90;99.90
11944;DHT22;6031;50.220;10.122;2022-11-20T13:42:46;3.00;99.90
11944;DHT22;6031;50.220;10.122;2022-11-20T13:45:28;3.10;99.90
11944;DHT22;6031;50.220;10.122;2022-11-20T13:47:55;3.20;99.90
11944;DHT22;6031;50.220;10.122;2022-11-20T13:54:05;3.40;99.90
11944;DHT22;6031;50.220;10.122;2022-11-20T13:56:34;3.30;99.90
11944;DHT22;6031;50.220;10.122;2022-11-20T13:59:27;3.20;99.90
11944;DHT22;6031;50.220;10.122;2022-11-20T14:01:55;3.10;99.90
11944;DHT22;6031;50.220;10.122;2022-11-20T14:04:29;3.10;99.90
11944;DHT22;6031;50.220;10.122;2022-11-20T14:06:56;3.00;99.90
11944;DHT22;6031;50.220;10.122;2022-11-20T14:09:32;3.00;99.90
11944;DHT22;6031;50.220;10.122;2022-11-20T14:11:59;3.00;99.90
11944;DHT22;6031;50.220;10.122;2022-11-20T14:14:26;2.90;99.90
11944;DHT22;6031;50.220;10.122;2022-11-20T14:17:04;2.80;99.90
11944;DHT22;6031;50.220;10.122;2022-11-20T14:19:31;2.80;99.90
11944;DHT22;6031;50.220;10.122;2022-11-20T14:22:07;2.70;99.90
11944;DHT22;6031;50.220;10.122;2022-11-20T14:24:34;2.60;99.90
11944;DHT22;6031;50.220;10.122;2022-11-20T14:27:00;2.70;99.90
11944;DHT22;6031;50.220;10.122;2022-11-20T14:29:33;2.70;99.90
11944;DHT22;6031;50.220;10.122;2022-11-20T14:32:01;2.60;99.90
11944;DHT22;6031;50.220;10.122;2022-11-20T14:34:30;2.60;99.90
11944;DHT22;6031;50.220;10.122;2022-11-20T14:37:00;2.60;99.90
11944;DHT22;6031;50.220;10.122;2022-11-20T14:39:30;2.60;99.90
11944;DHT22;6031;50.220;10.122;2022-11-20T14:41:57;2.50;99.90
11944;DHT22;6031;50.220;10.122;2022-11-20T14:44:33;2.50;99.90
11944;DHT22;6031;50.220;10.122;2022-11-20T14:47:00;2.60;99.90
11944;DHT22;6031;50.220;10.122;2022-11-20T14:49:29;2.50;99.90
11944;DHT22;6031;50.220;10.122;2022-11-20T14:52:10;2.40;99.90
11944;DHT22;6031;50.220;10.122;2022-11-20T14:54:47;2.40;99.90
11944;DHT22;6031;50.220;10.122;2022-11-20T14:57:33;2.40;99.90
11944;DHT22;6031;50.220;10.122;2022-11-20T15:02:31;2.40;99.90
11944;DHT22;6031;50.220;10.122;2022-11-20T15:04:58;2.40;99.90
11944;DHT22;6031;50.220;10.122;2022-11-20T15:07:32;2.40;99.90
11944;DHT22;6031;50.220;10.122;2022-11-20T15:10:11;2.30;99.90
11944;DHT22;6031;50.220;10.122;2022-11-20T15:15:19;2.40;99.90
11944;DHT22;6031;50.220;10.122;2022-11-20T15:17:45;2.40;99.90
11944;DHT22;6031;50.220;10.122;2022-11-20T15:20:14;2.30;99.90
11944;DHT22;6031;50.220;10.122;2022-11-20T15:22:40;2.40;99.90
11944;DHT22;6031;50.220;10.122;2022-11-20T15:25:16;2.40;99.90
11944;DHT22;6031;50.220;10.122;2022-11-20T15:27:42;2.40;99.90
11944;DHT22;6031;50.220;10.122;2022-11-20T15:30:16;2.50;99.90
11944;DHT22;6031;50.220;10.122;2022-11-20T15:32:43;2.40;99.90
11944;DHT22;6031;50.220;10.122;2022-11-20T15:35:09;2.40;99.90
11944;DHT22;6031;50.220;10.122;2022-11-20T15:37:36;2.40;99.90
11944;DHT22;6031;50.220;10.122;2022-11-20T15:40:02;2.40;99.90
11944;DHT22;6031;50.220;10.122;2022-11-20T15:42:28;2.30;99.90
11944;DHT22;6031;50.220;10.122;2022-11-20T15:44:54;2.30;99.90
11944;DHT22;6031;50.220;10.122;2022-11-20T15:47:22;2.30;99.90
11944;DHT22;6031;50.220;10.122;2022-11-20T15:49:49;2.10;99.90
11944;DHT22;6031;50.220;10.122;2022-11-20T15:52:15;2.10;99.90
11944;DHT22;6031;50.220;10.122;2022-11-20T15:54:41;2.10;99.90
11944;DHT22;6031;50.220;10.122;2022-11-20T15:57:07;2.10;99.90
11944;DHT22;6031;50.220;10.122;2022-11-20T15:59:32;2.10;99.90
11944;DHT22;6031;50.220;10.122;2022-11-20T16:01:58;2.10;99.90
11944;DHT22;6031;50.220;10.122;2022-11-20T16:04:23;2.10;99.90
11944;DHT22;6031;50.220;10.122;2022-11-20T16:06:49;2.10;99.90
11944;DHT22;6031;50.220;10.122;2022-11-20T16:09:14;2.10;99.90
11944;DHT22;6031;50.220;10.122;2022-11-20T16:11:40;2.00;99.90
11944;DHT22;6031;50.220;10.122;2022-11-20T16:14:06;2.00;99.90
11944;DHT22;6031;50.220;10.122;2022-11-20T16:17:10;2.00;99.90
11944;DHT22;6031;50.220;10.122;2022-11-20T16:19:36;2.10;99.90
11944;DHT22;6031;50.220;10.122;2022-11-20T16:22:02;2.10;99.90
11944;DHT22;6031;50.220;10.122;2022-11-20T16:24:27;2.10;99.90
11944;DHT22;6031;50.220;10.122;2022-11-20T16:26:54;2.10;99.90
11944;DHT22;6031;50.220;10.122;2022-11-20T16:29:19;2.10;99.90
11944;DHT22;6031;50.220;10.122;2022-11-20T16:31:45;2.10;99.90
11944;DHT22;6031;50.220;10.122;2022-11-20T16:34:10;2.10;99.90
11944;DHT22;6031;50.220;10.122;2022-11-20T16:36:39;2.10;99.90
11944;DHT22;6031;50.220;10.122;2022-11-20T16:39:05;2.10;99.90
11944;DHT22;6031;50.220;10.122;2022-11-20T16:41:32;2.10;99.90
11944;DHT22;6031;50.220;10.122;2022-11-20T16:44:00;2.10;99.90
11944;DHT22;6031;50.220;10.122;2022-11-20T16:46:29;2.00;99.90
11944;DHT22;6031;50.220;10.122;2022-11-20T16:48:56;2.10;99.90
11944;DHT22;6031;50.220;10.122;2022-11-20T16:51:23;2.10;99.90
11944;DHT22;6031;50.220;10.122;2022-11-20T16:53:49;2.20;99.90
11944;DHT22;6031;50.220;10.122;2022-11-20T16:56:19;2.20;99.90
11944;DHT22;6031;50.220;10.122;2022-11-20T16:58:46;2.20;99.90
11944;DHT22;6031;50.220;10.122;2022-11-20T17:01:15;2.20;99.90
11944;DHT22;6031;50.220;10.122;2022-11-20T17:03:43;2.10;99.90
11944;DHT22;6031;50.220;10.122;2022-11-20T17:06:19;2.20;99.90
11944;DHT22;6031;50.220;10.122;2022-11-20T17:08:46;2.20;99.90
11944;DHT22;6031;50.220;10.122;2022-11-20T17:11:14;2.20;99.90
11944;DHT22;6031;50.220;10.122;2022-11-20T17:13:40;2.20;99.90
11944;DHT22;6031;50.220;10.122;2022-11-20T17:16:11;2.20;99.90
11944;DHT22;6031;50.220;10.122;2022-11-20T17:18:37;2.20;99.90
11944;DHT22;6031;50.220;10.122;2022-11-20T17:21:03;2.30;99.90
11944;DHT22;6031;50.220;10.122;2022-11-20T17:23:37;2.20;99.90